Terminal Aerodrome Forecast
Issued by NWS Wilmington, OH

Current Version | Previous Version | Text Only | Print | Product List | Glossary Off
Versions: 1 2 3 4 5 6 7 8 9 10 11 12 13 14 15 16 17 18 19 20 21

000
FTUS41 KILN 031731
TAFILN
TAF
KILN 031731Z 0318/0418 26008KT P6SM FEW023 OVC035
     FM031900 VRB03KT P6SM BKN035
     FM040900 12004KT P6SM FEW040 BKN150
     FM041500 13008KT P6SM VCSH BKN080=

USA.gov is the U.S. government's official web portal to all federal, state and local government web resources and services.